Time;durP1;ratioP1;P1;durP2;ratioP2;P2;SDS_P1;SDS_P2;PMS_P1;PMS_P2;Temp;Humidity;BMP_temperature;BMP_pressure;BME280_temperature;BME280_humidity;BME280_pressure;Samples;Min_cycle;Max_cycle;Signal;HPM_P1;HPM_P2
2023/02/01 00:01:26;;;;;;;15.88;3.70;;;;;;;5.82;72.95;102266.19;6105253;19;20007;-76
2023/02/01 00:03:31;;;;;;;19.50;4.25;;;;;;;5.86;72.87;102255.78;6103395;19;20010;-76
2023/02/01 00:05:36;;;;;;;18.50;3.70;;;;;;;5.79;72.88;102253.16;6109158;19;20057;-76
2023/02/01 00:07:41;;;;;;;15.90;3.40;;;;;;;5.76;73.02;102250.53;6102067;19;20017;-76
2023/02/01 00:09:53;;;;;;;10.88;3.85;;;;;;;5.71;73.27;102256.63;6108851;19;20023;-76
2023/02/01 00:12:02;;;;;;;23.65;5.10;;;;;;;5.86;72.35;102254.91;6106738;19;20011;-76
2023/02/01 00:14:09;;;;;;;20.25;4.00;;;;;;;5.85;72.41;102264.50;6104126;19;20010;-76
2023/02/01 00:16:18;;;;;;;25.95;3.80;;;;;;;5.78;72.55;102261.88;6103899;19;20010;-77
2023/02/01 00:18:25;;;;;;;15.90;3.67;;;;;;;5.91;72.05;102266.22;6103583;19;20014;-76
2023/02/01 00:20:30;;;;;;;14.93;3.15;;;;;;;5.86;72.13;102260.13;6101715;19;20381;-77
2023/02/01 00:22:35;;;;;;;11.77;3.13;;;;;;;5.78;72.40;102252.28;6104332;19;20086;-76
2023/02/01 00:24:40;;;;;;;11.02;3.38;;;;;;;5.80;72.03;102271.44;6106807;19;20015;-75
2023/02/01 00:26:49;;;;;;;16.48;4.10;;;;;;;5.91;71.38;102258.41;6101359;19;20483;-76
2023/02/01 00:28:55;;;;;;;10.98;3.22;;;;;;;5.78;71.79;102252.28;6098055;19;20471;-76
2023/02/01 00:31:00;;;;;;;13.80;3.40;;;;;;;5.69;72.10;102247.94;6105736;19;20019;-76
2023/02/01 00:33:06;;;;;;;14.00;3.90;;;;;;;5.78;71.68;102251.44;6103841;19;20248;-75
2023/02/01 00:35:11;;;;;;;17.25;3.95;;;;;;;5.92;70.76;102240.16;6101371;19;20034;-76
2023/02/01 00:37:19;;;;;;;9.73;2.85;;;;;;;5.97;70.63;102245.38;6104621;19;20045;-75
2023/02/01 00:39:24;;;;;;;18.17;5.55;;;;;;;5.97;70.47;102247.13;6105140;19;20011;-75
2023/02/01 00:41:29;;;;;;;14.23;3.35;;;;;;;5.86;70.91;102239.25;6107660;19;20450;-75
2023/02/01 00:43:41;;;;;;;10.00;2.95;;;;;;;5.96;70.32;102243.66;6102013;19;20087;-75
2023/02/01 00:45:48;;;;;;;16.13;3.65;;;;;;;5.94;70.57;102250.59;6105804;19;20007;-75
2023/02/01 00:47:53;;;;;;;15.80;3.78;;;;;;;5.96;70.23;102245.41;6102896;19;20006;-75
2023/02/01 00:49:58;;;;;;;11.00;3.85;;;;;;;5.96;70.53;102237.59;6103196;19;20010;-76
2023/02/01 00:52:03;;;;;;;17.02;3.38;;;;;;;5.85;70.87;102237.53;6105866;19;20560;-76
2023/02/01 00:54:08;;;;;;;16.42;3.10;;;;;;;5.92;70.73;102232.34;6102279;19;20073;-75
2023/02/01 00:56:16;;;;;;;13.63;3.10;;;;;;;5.96;70.98;102234.97;6102650;19;20508;-75
2023/02/01 00:58:23;;;;;;;11.98;3.53;;;;;;;6.03;70.97;102228.88;6101338;19;20615;-75
2023/02/01 01:00:31;;;;;;;12.98;3.55;;;;;;;5.87;71.27;102223.63;6104281;19;20021;-75
2023/02/01 01:02:36;;;;;;;9.32;2.75;;;;;;;5.97;71.59;102221.03;6102333;19;20014;-75
2023/02/01 01:04:41;;;;;;;15.00;3.05;;;;;;;5.98;71.51;102226.28;6103709;19;20380;-75
2023/02/01 01:06:46;;;;;;;16.00;4.47;;;;;;;5.96;71.84;102220.19;6076828;19;20496;-75
2023/02/01 01:08:54;;;;;;;17.20;3.72;;;;;;;5.87;72.45;102225.34;6095844;19;20018;-75
2023/02/01 01:10:59;;;;;;;13.02;3.45;;;;;;;5.92;72.56;102223.59;6099503;19;20055;-76
2023/02/01 01:13:07;;;;;;;18.45;4.53;;;;;;;5.94;72.31;102233.22;6104032;19;20030;-76
2023/02/01 01:15:13;;;;;;;19.80;3.85;;;;;;;5.98;72.54;102233.22;6103553;19;20142;-74
2023/02/01 01:17:20;;;;;;;11.85;3.17;;;;;;;5.92;72.75;102234.94;6105470;19;20078;-75
2023/02/01 01:19:26;;;;;;;15.73;3.65;;;;;;;6.00;72.65;102231.47;6103321;19;20035;-75
2023/02/01 01:21:32;;;;;;;16.92;4.03;;;;;;;6.10;72.37;102225.41;6102107;19;20014;-76
2023/02/01 01:23:39;;;;;;;13.80;3.45;;;;;;;6.10;72.42;102223.66;6080341;19;20103;-74
2023/02/01 01:25:44;;;;;;;14.43;4.22;;;;;;;5.98;72.92;102223.66;6102450;19;20015;-74
2023/02/01 01:27:50;;;;;;;13.95;3.75;;;;;;;5.91;73.97;102222.75;6101589;19;20054;-75
2023/02/01 01:29:55;;;;;;;15.50;3.20;;;;;;;6.07;73.08;102233.22;6104619;19;20486;-75
2023/02/01 01:32:00;;;;;;;16.63;3.22;;;;;;;6.29;72.48;102235.00;6080684;19;20015;-75
2023/02/01 01:34:11;;;;;;;16.48;4.72;;;;;;;6.36;72.13;102231.47;6102242;19;20003;-74
2023/02/01 01:36:17;;;;;;;17.77;4.13;;;;;;;6.29;72.18;102223.66;6101179;19;20483;-75
2023/02/01 01:38:22;;;;;;;18.77;3.85;;;;;;;6.27;72.40;102225.41;6102663;19;20048;-75
2023/02/01 01:40:28;;;;;;;12.65;3.05;;;;;;;6.27;72.25;102230.63;6103370;19;20572;-76
2023/02/01 01:42:33;;;;;;;18.25;4.10;;;;;;;6.20;72.76;102239.31;6082644;19;20021;-76
2023/02/01 01:45:00;;;;;;;11.52;3.05;;;;;;;6.17;72.93;102234.97;6102955;19;20464;-74
2023/02/01 01:47:05;;;;;;;17.20;3.30;;;;;;;6.03;73.60;102242.81;6091770;19;20409;-75
2023/02/01 01:49:17;;;;;;;18.77;3.55;;;;;;;6.12;73.20;102234.09;6099618;19;20039;-75
2023/02/01 01:51:26;;;;;;;17.17;4.15;;;;;;;6.14;73.38;102230.63;6104650;19;20018;-75
2023/02/01 01:53:36;;;;;;;17.27;3.28;;;;;;;6.08;73.75;102229.75;6096503;19;20010;-75
2023/02/01 01:55:45;;;;;;;14.90;4.22;;;;;;;6.06;74.18;102223.69;6106623;19;20566;-74
2023/02/01 01:57:55;;;;;;;20.00;4.40;;;;;;;6.06;73.92;102221.94;6102717;19;20680;-75
2023/02/01 02:00:06;;;;;;;15.45;3.95;;;;;;;6.16;74.24;102222.78;6104025;19;20337;-75
2023/02/01 02:02:12;;;;;;;20.33;4.40;;;;;;;6.18;73.99;102223.66;6104693;19;20096;-74
2023/02/01 02:04:20;;;;;;;18.95;5.00;;;;;;;6.10;74.43;102209.75;6103853;19;20140;-75
2023/02/01 02:06:36;;;;;;;19.83;5.80;;;;;;;6.19;74.39;102216.69;6104012;19;20015;-74
2023/02/01 02:08:41;;;;;;;17.45;3.92;;;;;;;6.17;74.42;102214.09;6104985;19;20014;-77
2023/02/01 02:11:03;;;;;;;18.00;4.18;;;;;;;6.18;74.59;102215.81;6105842;19;20500;-74
2023/02/01 02:13:08;;;;;;;23.87;4.53;;;;;;;6.24;74.27;102210.63;6097029;19;21051;-75
2023/02/01 02:15:16;;;;;;;16.80;3.38;;;;;;;6.27;73.74;102210.63;6100753;19;20010;-75
2023/02/01 02:17:36;;;;;;;18.67;3.42;;;;;;;6.21;74.13;102200.16;6103576;19;20070;-75
2023/02/01 02:20:24;;;;;;;21.92;4.10;;;;;;;6.21;74.31;102213.22;6081669;19;20529;-76
2023/02/01 02:23:06;;;;;;;20.20;4.45;;;;;;;6.19;74.37;102195.81;6098402;19;20077;-76
2023/02/01 02:25:47;;;;;;;18.83;4.20;;;;;;;6.14;74.36;102199.31;6078675;19;20003;-76
2023/02/01 02:28:02;;;;;;;12.05;3.47;;;;;;;6.28;73.99;102196.69;6081856;19;20503;-74
2023/02/01 02:30:45;;;;;;;22.95;4.28;;;;;;;6.28;73.52;102195.81;6081722;19;20479;-75
2023/02/01 02:33:29;;;;;;;14.95;3.80;;;;;;;6.23;73.74;102197.56;6098283;19;20351;-75
2023/02/01 02:35:47;;;;;;;20.63;3.83;;;;;;;6.35;72.91;102194.94;6103558;19;20376;-76
2023/02/01 02:38:01;;;;;;;17.58;4.93;;;;;;;6.33;73.01;102199.28;6104021;19;20406;-75
2023/02/01 02:40:15;;;;;;;14.15;3.70;;;;;;;6.35;73.14;102194.94;6101786;19;20044;-76
2023/02/01 02:47:28;;;;;;;16.60;4.18;;;;;;;6.37;73.61;102196.69;6103491;19;20078;-76
2023/02/01 02:49:42;;;;;;;19.83;3.58;;;;;;;6.32;74.20;102205.41;6105874;19;20019;-76
2023/02/01 03:05:54;;;;;;;11.50;2.75;;;;;;;6.33;73.36;102170.56;6103476;19;20510;-76
2023/02/01 03:08:06;;;;;;;16.25;3.80;;;;;;;6.23;73.92;102161.88;6102320;19;20052;-76
2023/02/01 03:10:19;;;;;;;25.00;5.10;;;;;;;6.34;73.35;102152.28;6102315;19;20023;-77
2023/02/01 03:14:47;;;;;;;17.30;4.65;;;;;;;6.22;74.22;102157.53;6076564;19;20026;-76
2023/02/01 03:16:55;;;;;;;17.48;4.28;;;;;;;6.21;74.49;102152.31;6104520;19;20265;-76
2023/02/01 03:19:05;;;;;;;18.52;4.53;;;;;;;6.18;74.38;102160.16;6097788;19;20010;-76
2023/02/01 03:21:13;;;;;;;21.02;4.35;;;;;;;6.14;74.68;102173.22;6103009;19;20108;-76
2023/02/01 03:23:29;;;;;;;18.50;5.93;;;;;;;6.15;74.78;102164.50;6103174;19;20015;-76
2023/02/01 03:25:36;;;;;;;12.43;3.53;;;;;;;6.10;75.00;102170.59;6101839;19;20010;-76
2023/02/01 03:27:47;;;;;;;18.35;4.32;;;;;;;6.04;74.84;102153.22;6101603;19;20002;-76
2023/02/01 03:30:01;;;;;;;15.20;3.22;;;;;;;5.99;74.82;102162.78;6101906;19;20019;-76
2023/02/01 03:32:06;;;;;;;14.00;3.95;;;;;;;6.06;74.58;102159.31;6099801;19;20006;-75
2023/02/01 03:34:15;;;;;;;12.85;3.85;;;;;;;6.04;74.49;102161.03;6102788;19;20371;-76
2023/02/01 03:36:28;;;;;;;21.88;4.03;;;;;;;6.03;74.41;102150.59;6102102;19;20191;-76
2023/02/01 03:38:43;;;;;;;19.23;4.03;;;;;;;6.06;74.06;102159.31;6102403;19;20484;-76
2023/02/01 03:40:54;;;;;;;16.35;4.40;;;;;;;6.11;74.01;102173.22;6101406;19;20018;-75
2023/02/01 03:43:05;;;;;;;19.65;3.35;;;;;;;6.05;74.18;102170.59;6086987;19;20389;-75
2023/02/01 03:45:14;;;;;;;31.30;4.50;;;;;;;6.10;73.97;102167.97;6098711;19;20014;-75
2023/02/01 03:47:23;;;;;;;16.70;3.70;;;;;;;6.00;74.69;102161.88;6095924;19;20007;-75
2023/02/01 03:49:32;;;;;;;15.18;4.20;;;;;;;6.00;74.83;102161.88;6103948;19;20428;-76
2023/02/01 03:51:41;;;;;;;15.23;4.28;;;;;;;6.05;74.49;102161.91;6103796;19;20014;-76
2023/02/01 03:53:52;;;;;;;15.70;3.65;;;;;;;5.94;75.00;102164.50;6097207;19;20041;-77
2023/02/01 03:55:59;;;;;;;15.98;4.43;;;;;;;5.91;74.88;102157.53;6100075;19;20066;-76
2023/02/01 03:58:08;;;;;;;13.32;3.85;;;;;;;6.01;74.34;102152.34;6102718;19;20358;-76
2023/02/01 04:00:21;;;;;;;13.15;3.67;;;;;;;5.96;74.28;102161.91;6102965;19;20490;-75
2023/02/01 04:02:26;;;;;;;;;;;;;;;6.01;74.00;102162.78;6101506;19;20027;-76
2023/02/01 04:04:33;;;;;;;18.30;4.78;;;;;;;5.96;74.07;102178.44;6103084;19;20355;-75
2023/02/01 04:06:41;;;;;;;22.77;5.10;;;;;;;5.98;74.34;102170.59;6101043;19;20031;-76
2023/02/01 04:08:52;;;;;;;12.05;3.67;;;;;;;5.97;74.35;102156.69;6103174;19;20487;-75
2023/02/01 04:10:57;;;;;;;16.65;3.88;;;;;;;5.91;74.37;102159.25;6096278;19;20476;-75
2023/02/01 04:13:02;;;;;;;20.95;4.53;;;;;;;5.94;74.44;102181.03;6105889;19;20011;-75
2023/02/01 04:15:09;;;;;;;16.55;3.95;;;;;;;5.98;74.33;102173.19;6107345;19;20017;-78
2023/02/01 04:17:26;;;;;;;17.45;4.38;;;;;;;5.98;74.53;102162.75;6105095;19;20358;-76
2023/02/01 04:19:32;;;;;;;18.15;3.70;;;;;;;5.99;74.41;102173.22;6105354;19;20032;-77
2023/02/01 04:21:39;;;;;;;22.80;3.92;;;;;;;6.07;74.08;102161.03;6104177;19;20017;-75
2023/02/01 04:23:44;;;;;;;16.33;3.80;;;;;;;6.12;74.00;102164.50;6104854;19;20010;-74
2023/02/01 04:25:52;;;;;;;15.95;4.75;;;;;;;6.06;74.07;102174.09;6108096;19;20007;-77
2023/02/01 04:28:00;;;;;;;14.48;3.92;;;;;;;6.11;73.92;102165.38;6107432;19;20011;-75
2023/02/01 04:30:09;;;;;;;17.85;3.75;;;;;;;6.14;73.73;102170.59;6105250;19;20057;-75
2023/02/01 04:32:15;;;;;;;16.52;4.47;;;;;;;6.28;72.94;102170.56;6106061;19;20435;-77
2023/02/01 04:34:22;;;;;;;20.52;4.93;;;;;;;6.26;73.23;102166.22;6106893;19;20021;-77
2023/02/01 04:36:27;;;;;;;24.50;4.93;;;;;;;6.23;73.38;102168.84;6108204;19;20023;-77
2023/02/01 04:38:32;;;;;;;19.00;4.85;;;;;;;6.21;73.57;102174.06;6106976;19;20070;-76
2023/02/01 04:40:40;;;;;;;16.13;4.65;;;;;;;6.27;73.06;102176.69;6107227;19;20014;-76
2023/02/01 04:42:48;;;;;;;13.05;3.95;;;;;;;6.22;73.31;102167.13;6107934;19;20014;-76
2023/02/01 04:44:53;;;;;;;22.83;4.13;;;;;;;6.21;73.67;102173.19;6106265;19;20014;-76
2023/02/01 04:46:58;;;;;;;22.00;4.05;;;;;;;6.10;73.93;102166.25;6099187;19;20078;-75
2023/02/01 04:49:04;;;;;;;15.48;4.03;;;;;;;6.17;73.68;102169.72;6106780;19;20014;-76
2023/02/01 04:51:10;;;;;;;12.85;2.90;;;;;;;6.10;73.61;102163.63;6105961;19;20459;-75
2023/02/01 04:53:14;;;;;;;13.27;3.50;;;;;;;6.03;73.85;102161.91;6101773;19;20019;-75
2023/02/01 04:55:20;;;;;;;14.52;4.15;;;;;;;6.08;73.28;102141.91;6106729;19;20015;-75
2023/02/01 04:57:25;;;;;;;11.20;3.83;;;;;;;6.09;73.31;102146.25;6106526;19;20013;-74
2023/02/01 04:59:33;;;;;;;14.73;4.35;;;;;;;6.15;73.29;102143.63;6109404;19;20014;-75
2023/02/01 05:01:40;;;;;;;14.05;3.78;;;;;;;6.03;73.49;102132.31;6106800;19;20019;-75
2023/02/01 05:03:45;;;;;;;17.15;3.40;;;;;;;5.97;73.93;102142.78;6108086;19;20070;-75
2023/02/01 05:05:53;;;;;;;17.35;3.80;;;;;;;5.96;74.05;102134.06;6106182;19;20603;-76
2023/02/01 05:07:58;;;;;;;26.50;4.38;;;;;;;5.95;74.24;102150.63;6105549;19;20011;-75
2023/02/01 05:10:03;;;;;;;18.00;3.30;;;;;;;5.93;74.50;102148.00;6107405;19;20129;-75
2023/02/01 05:14:26;;;;;;;10.40;3.38;;;;;;;5.88;74.28;102152.31;6103912;19;20011;-75
2023/02/01 05:16:35;;;;;;;15.63;3.20;;;;;;;5.88;74.22;102144.47;6106642;19;20011;-75
2023/02/01 05:18:40;;;;;;;20.65;4.55;;;;;;;5.86;74.44;102161.00;6104551;19;20712;-76
2023/02/01 05:20:45;;;;;;;16.20;4.18;;;;;;;5.78;74.98;102166.22;6100370;19;20374;-77
2023/02/01 05:22:50;;;;;;;18.80;4.60;;;;;;;5.73;75.18;102175.78;6104025;19;20019;-75
2023/02/01 05:24:55;;;;;;;8.10;3.20;;;;;;;5.73;75.29;102175.78;6102718;19;20022;-75
2023/02/01 05:27:01;;;;;;;14.80;4.65;;;;;;;5.77;75.46;102171.44;6099186;19;20014;-77
2023/02/01 05:29:10;;;;;;;15.68;3.78;;;;;;;5.71;75.53;102167.97;6106022;19;20010;-75
2023/02/01 05:31:16;;;;;;;10.77;3.17;;;;;;;5.76;75.65;102162.72;6107043;19;26215;-75
2023/02/01 05:33:24;;;;;;;14.95;4.20;;;;;;;5.82;75.49;102172.28;6105418;19;20719;-75
2023/02/01 05:35:29;;;;;;;15.48;4.63;;;;;;;5.78;75.79;102176.66;6105680;19;20014;-75
2023/02/01 05:37:37;;;;;;;19.20;5.60;;;;;;;5.76;76.02;102169.69;6103017;19;20351;-75
2023/02/01 05:39:42;;;;;;;14.75;3.03;;;;;;;5.78;75.79;102174.03;6105655;19;20793;-74
2023/02/01 05:41:48;;;;;;;18.23;4.65;;;;;;;5.85;75.78;102169.72;6105654;19;20090;-75
2023/02/01 05:43:53;;;;;;;19.58;3.85;;;;;;;5.86;75.79;102179.25;6105160;19;20086;-75
2023/02/01 05:45:58;;;;;;;13.07;3.92;;;;;;;5.86;75.94;102163.59;6104961;19;20035;-76
2023/02/01 05:48:03;;;;;;;23.08;4.82;;;;;;;5.93;75.68;102175.78;6101850;19;20046;-75
2023/02/01 05:50:14;;;;;;;16.17;4.60;;;;;;;5.93;75.70;102167.97;6082543;19;20021;-76
2023/02/01 05:52:20;;;;;;;18.55;4.10;;;;;;;5.95;75.62;102163.66;6100331;19;20018;-75
2023/02/01 05:54:25;;;;;;;15.85;3.53;;;;;;;5.89;75.47;102161.00;6105512;19;20226;-76
2023/02/01 05:56:31;;;;;;;13.05;3.83;;;;;;;5.88;75.62;102170.56;6105636;19;20496;-76
2023/02/01 05:58:36;;;;;;;18.02;4.40;;;;;;;5.83;76.10;102181.88;6103410;19;20006;-75
2023/02/01 06:00:42;;;;;;;13.85;3.95;;;;;;;5.86;75.97;102187.09;6101621;19;20023;-75
2023/02/01 06:02:48;;;;;;;17.25;3.90;;;;;;;5.85;76.14;102180.16;6104358;19;20014;-76
2023/02/01 06:04:53;;;;;;;20.88;4.22;;;;;;;5.84;76.12;102171.41;6101690;19;20077;-76
2023/02/01 06:07:01;;;;;;;20.50;4.03;;;;;;;5.79;76.11;102182.72;6076241;19;20017;-76
2023/02/01 06:09:06;;;;;;;12.52;3.83;;;;;;;5.73;76.45;102183.59;6104174;19;20014;-77
2023/02/01 06:11:14;;;;;;;23.83;4.55;;;;;;;5.76;76.71;102186.19;6104327;19;20023;-76
2023/02/01 06:13:38;;;;;;;18.98;4.47;;;;;;;5.78;76.57;102181.88;6102436;19;20011;-76
2023/02/01 06:15:46;;;;;;;15.25;4.43;;;;;;;5.75;76.75;102170.56;6104593;19;20043;-76
2023/02/01 06:17:54;;;;;;;15.15;4.90;;;;;;;5.72;76.96;102182.72;6102587;19;20422;-76
2023/02/01 06:20:01;;;;;;;17.38;4.10;;;;;;;5.77;76.98;102192.31;6100995;19;20574;-77
2023/02/01 06:22:09;;;;;;;23.85;4.68;;;;;;;5.77;77.09;102184.50;6104001;19;20020;-76
2023/02/01 06:24:14;;;;;;;16.02;4.63;;;;;;;5.79;76.95;102177.50;6102991;19;20010;-77
2023/02/01 06:26:19;;;;;;;19.90;4.45;;;;;;;5.77;76.78;102187.09;6104360;19;20018;-77
2023/02/01 06:28:25;;;;;;;16.02;4.30;;;;;;;5.85;76.31;102185.38;6104319;19;20022;-77
2023/02/01 06:30:31;;;;;;;16.75;4.15;;;;;;;5.96;75.71;102178.44;6104411;19;20047;-77
2023/02/01 06:32:36;;;;;;;19.15;4.90;;;;;;;5.93;75.69;102179.31;6103794;19;20015;-77
2023/02/01 06:34:41;;;;;;;21.73;5.13;;;;;;;5.88;75.78;102182.75;6082117;19;20014;-77
2023/02/01 06:36:46;;;;;;;17.40;3.88;;;;;;;5.84;76.05;102187.06;6103743;19;20010;-76
2023/02/01 06:38:59;;;;;;;17.67;4.88;;;;;;;5.97;75.02;102179.28;6103060;19;20010;-76
2023/02/01 06:41:07;;;;;;;20.73;4.75;;;;;;;6.03;74.95;102182.78;6101049;19;20014;-76
2023/02/01 06:43:12;;;;;;;21.20;3.95;;;;;;;5.99;74.67;102180.19;6105967;19;20014;-76
2023/02/01 06:45:17;;;;;;;17.92;3.95;;;;;;;5.97;74.92;102188.00;6103733;19;20563;-77
2023/02/01 06:47:22;;;;;;;9.55;3.35;;;;;;;5.86;75.60;102187.09;6101602;19;20056;-77
2023/02/01 06:49:27;;;;;;;17.80;4.15;;;;;;;5.89;75.28;102190.56;6102385;19;20378;-76
2023/02/01 06:51:33;;;;;;;13.65;3.55;;;;;;;5.87;75.94;102186.22;6103204;19;20030;-77
2023/02/01 06:53:41;;;;;;;16.02;3.40;;;;;;;5.95;75.45;102174.09;6100160;19;20374;-74
2023/02/01 06:55:56;;;;;;;14.35;3.63;;;;;;;5.96;75.35;102172.34;6104034;19;20040;-75
2023/02/01 06:58:02;;;;;;;14.45;3.72;;;;;;;5.93;75.83;102179.31;6104140;19;20011;-75
2023/02/01 07:00:08;;;;;;;15.48;3.70;;;;;;;5.90;75.79;102181.88;6102212;19;20007;-76
2023/02/01 07:02:14;;;;;;;14.70;4.05;;;;;;;5.86;76.17;102184.47;6104357;19;20543;-76
2023/02/01 07:04:19;;;;;;;22.27;5.25;;;;;;;5.98;76.23;102171.47;6103311;19;20011;-75
2023/02/01 07:06:24;;;;;;;12.25;3.60;;;;;;;5.90;76.30;102181.88;6103065;19;20010;-75
2023/02/01 07:08:30;;;;;;;16.33;3.65;;;;;;;5.92;76.38;102194.91;6102557;19;20039;-75
2023/02/01 07:10:36;;;;;;;18.40;4.00;;;;;;;5.91;76.34;102180.13;6103006;19;20409;-75
2023/02/01 07:12:44;;;;;;;16.38;4.60;;;;;;;5.90;76.38;102181.03;6102039;19;20011;-77
2023/02/01 07:14:49;;;;;;;16.70;3.95;;;;;;;5.91;76.46;102185.34;6102626;19;20039;-75
2023/02/01 07:16:54;;;;;;;18.27;4.30;;;;;;;5.85;76.86;102185.38;6104021;19;20034;-76
2023/02/01 07:18:59;;;;;;;13.38;4.30;;;;;;;5.87;76.72;102187.09;6098495;19;20021;-76
2023/02/01 07:21:04;;;;;;;13.88;3.33;;;;;;;5.98;76.25;102192.34;6099336;19;20353;-77
2023/02/01 07:23:12;;;;;;;16.25;4.20;;;;;;;5.99;76.18;102194.09;6104410;19;20010;-76
2023/02/01 07:25:17;;;;;;;19.90;4.57;;;;;;;6.01;76.25;102194.09;6102735;19;20442;-77
2023/02/01 07:27:24;;;;;;;17.55;3.60;;;;;;;6.01;76.06;102197.56;6103037;19;20015;-75
2023/02/01 07:29:32;;;;;;;10.20;3.15;;;;;;;6.02;75.81;102193.22;6103303;19;20025;-76
2023/02/01 07:31:39;;;;;;;9.05;3.70;;;;;;;5.90;76.36;102191.47;6102524;19;20010;-75
2023/02/01 07:33:48;;;;;;;15.02;3.72;;;;;;;5.95;76.33;102200.19;6103887;19;20031;-75
2023/02/01 07:35:53;;;;;;;10.68;3.28;;;;;;;5.92;76.73;102200.13;6100900;19;20011;-76
2023/02/01 07:38:01;;;;;;;20.85;5.13;;;;;;;5.93;76.62;102202.78;6104068;19;20006;-76
2023/02/01 07:40:11;;;;;;;12.98;3.88;;;;;;;5.86;76.86;102214.03;6100907;19;20015;-76
2023/02/01 07:42:16;;;;;;;11.30;3.17;;;;;;;5.94;76.62;102207.13;6100421;19;20022;-76
2023/02/01 07:44:24;;;;;;;15.02;3.78;;;;;;;5.94;76.63;102216.69;6095832;19;20017;-75
2023/02/01 07:46:32;;;;;;;14.98;3.92;;;;;;;5.92;76.64;102223.59;6101293;19;20013;-76
2023/02/01 07:48:41;;;;;;;16.00;3.45;;;;;;;5.99;76.02;102220.19;6103262;19;20479;-76
2023/02/01 07:50:48;;;;;;;16.63;4.72;;;;;;;5.97;76.01;102227.13;6109365;19;20496;-77
2023/02/01 07:52:56;;;;;;;21.50;4.88;;;;;;;5.97;75.96;102227.13;6107269;19;20475;-76
2023/02/01 07:55:02;;;;;;;12.15;3.72;;;;;;;5.97;76.04;102228.88;6102328;19;20468;-76
2023/02/01 07:57:08;;;;;;;14.02;4.28;;;;;;;6.03;75.95;102229.75;6103719;19;20022;-76
2023/02/01 07:59:14;;;;;;;23.70;4.78;;;;;;;6.00;75.94;102221.03;6104943;19;20021;-76
2023/02/01 08:01:23;;;;;;;16.13;4.43;;;;;;;6.02;76.33;102222.78;6103065;19;20649;-76
2023/02/01 08:03:32;;;;;;;15.52;5.15;;;;;;;6.01;76.31;102218.44;6104558;19;20020;-77
2023/02/01 08:05:40;;;;;;;16.55;3.30;;;;;;;6.02;76.49;102220.16;6103706;19;20028;-77
2023/02/01 08:07:45;;;;;;;12.63;4.07;;;;;;;5.98;76.75;102234.09;6099646;19;20007;-77
2023/02/01 08:09:50;;;;;;;17.35;4.30;;;;;;;6.03;76.42;102223.66;6104691;19;20479;-78
2023/02/01 08:11:55;;;;;;;15.77;4.50;;;;;;;5.99;76.71;102220.19;6104771;19;20660;-77
2023/02/01 08:14:01;;;;;;;11.80;4.28;;;;;;;6.06;76.37;102226.28;6101352;19;20543;-77
2023/02/01 08:16:09;;;;;;;10.15;3.97;;;;;;;6.06;76.25;102205.41;6104910;19;20463;-77
2023/02/01 08:18:16;;;;;;;16.75;3.75;;;;;;;6.06;76.49;102215.84;6099594;19;20471;-77
2023/02/01 08:20:25;;;;;;;15.82;4.07;;;;;;;6.13;75.90;102214.97;6102115;19;20019;-76
2023/02/01 08:22:36;;;;;;;18.33;4.22;;;;;;;6.19;75.48;102214.97;6108659;19;20007;-76
2023/02/01 08:24:44;;;;;;;11.38;3.20;;;;;;;6.20;75.56;102214.09;6104318;19;20035;-77
2023/02/01 08:26:52;;;;;;;13.32;3.90;;;;;;;6.29;75.11;102202.78;6104894;19;20024;-76
2023/02/01 08:29:00;;;;;;;12.20;4.35;;;;;;;6.32;74.99;102200.19;6102191;19;20043;-76
2023/02/01 08:31:14;;;;;;;17.55;3.55;;;;;;;6.35;74.48;102198.44;6106751;19;20015;-76
2023/02/01 08:33:19;;;;;;;18.13;3.75;;;;;;;6.35;74.25;102187.97;6105757;19;20003;-75
2023/02/01 08:35:27;;;;;;;18.15;3.95;;;;;;;6.38;74.40;102187.09;6105474;19;20027;-76
2023/02/01 08:37:51;;;;;;;12.85;3.55;;;;;;;6.38;74.75;102194.94;6103672;19;20103;-76
2023/02/01 08:39:56;;;;;;;9.70;3.00;;;;;;;6.43;74.87;102190.59;6107023;19;20408;-76
2023/02/01 08:44:20;;;;;;;14.65;3.75;;;;;;;6.45;74.47;102199.28;6101583;19;20006;-76
2023/02/01 08:46:25;;;;;;;19.08;4.22;;;;;;;6.48;74.73;102191.44;6104698;19;20285;-76
2023/02/01 08:48:30;;;;;;;15.38;3.53;;;;;;;6.52;74.38;102190.56;6105486;19;20063;-76
2023/02/01 08:50:38;;;;;;;16.30;3.65;;;;;;;6.57;74.39;102196.63;6104078;19;20013;-76
2023/02/01 08:52:43;;;;;;;12.45;4.13;;;;;;;6.57;74.97;102201.84;6099667;19;20007;-75
2023/02/01 08:54:51;;;;;;;19.35;4.07;;;;;;;6.59;74.79;102191.41;6103218;19;20019;-75
2023/02/01 08:56:56;;;;;;;19.50;3.53;;;;;;;6.59;74.54;102176.63;6102424;19;20015;-76
2023/02/01 08:59:02;;;;;;;12.63;3.60;;;;;;;6.62;74.77;102182.72;6097019;19;20015;-76
2023/02/01 09:01:11;;;;;;;10.25;3.63;;;;;;;6.65;74.17;102175.72;6102726;19;20011;-76
2023/02/01 09:03:17;;;;;;;16.77;4.25;;;;;;;6.71;74.25;102167.00;6105189;19;20089;-77
2023/02/01 09:05:26;;;;;;;12.80;4.20;;;;;;;6.78;73.81;102169.59;6105575;19;20235;-77
2023/02/01 09:07:47;;;;;;;18.50;4.20;;;;;;;6.88;73.83;102154.75;6107164;19;20349;-76
2023/02/01 09:09:54;;;;;;;15.52;4.00;;;;;;;6.91;73.49;102156.50;6105599;19;20125;-74
2023/02/01 09:11:59;;;;;;;16.42;3.80;;;;;;;6.93;73.69;102155.59;6105874;19;20028;-75
2023/02/01 09:14:05;;;;;;;19.05;3.72;;;;;;;6.95;73.37;102163.41;6105290;19;20340;-77
2023/02/01 09:16:10;;;;;;;14.38;4.45;;;;;;;6.95;73.08;102159.09;6104511;19;20027;-76
2023/02/01 09:18:15;;;;;;;13.48;3.50;;;;;;;7.01;73.08;102166.03;6090788;19;20018;-77
2023/02/01 09:20:23;;;;;;;14.10;4.03;;;;;;;7.02;72.77;102160.78;6104710;19;20416;-76
2023/02/01 09:22:29;;;;;;;16.20;3.75;;;;;;;7.06;72.85;102158.16;6084375;19;20069;-77
2023/02/01 09:24:39;;;;;;;14.88;3.60;;;;;;;7.07;72.67;102159.91;6105763;19;20094;-76
2023/02/01 09:26:44;;;;;;;17.52;4.57;;;;;;;7.10;72.79;102167.72;6106290;19;20011;-76
2023/02/01 09:28:49;;;;;;;22.70;4.97;;;;;;;7.09;72.11;102176.44;6100696;19;20348;-77
2023/02/01 09:31:02;;;;;;;18.92;4.22;;;;;;;7.09;72.39;102160.78;6081236;19;20031;-77
2023/02/01 09:33:08;;;;;;;16.48;4.57;;;;;;;7.09;72.33;102164.25;6099984;19;20022;-78
2023/02/01 09:35:23;;;;;;;16.10;3.65;;;;;;;7.10;72.25;102178.19;6104538;19;20002;-78
2023/02/01 09:37:29;;;;;;;14.75;4.30;;;;;;;7.13;72.03;102178.16;6104548;19;21391;-77
2023/02/01 09:39:39;;;;;;;14.13;3.35;;;;;;;7.15;71.66;102197.31;6104779;19;20040;-79
2023/02/01 09:42:00;;;;;;;12.27;4.13;;;;;;;7.20;72.09;102187.72;6103156;19;20378;-77
2023/02/01 09:44:17;;;;;;;16.50;2.92;;;;;;;7.20;72.03;102190.34;6104809;19;20047;-78
2023/02/01 09:46:25;;;;;;;16.25;5.03;;;;;;;7.24;72.06;102197.25;6105327;19;20480;-77
2023/02/01 09:48:35;;;;;;;21.77;5.15;;;;;;;7.21;71.32;102192.06;6102634;19;20345;-78
2023/02/01 09:50:44;;;;;;;14.45;3.75;;;;;;;7.22;71.71;102199.03;6080872;19;19999;-75
2023/02/01 09:52:56;;;;;;;19.73;4.40;;;;;;;7.20;71.67;102191.19;6102000;19;20047;-76
2023/02/01 09:55:17;;;;;;;19.30;5.53;;;;;;;7.17;70.90;102198.19;6100598;19;20455;-80
2023/02/01 09:57:28;;;;;;;11.68;3.35;;;;;;;7.13;71.40;102202.53;6106959;19;20021;-79
2023/02/01 09:59:43;;;;;;;16.42;3.75;;;;;;;7.16;71.17;102194.72;6099802;19;20384;-84
2023/02/01 10:01:51;;;;;;;8.77;2.90;;;;;;;7.18;71.13;102189.47;6101762;19;20014;-79
2023/02/01 10:04:07;;;;;;;22.52;4.25;;;;;;;7.18;71.08;102197.31;6097024;19;20017;-78
2023/02/01 10:06:25;;;;;;;13.05;3.85;;;;;;;7.15;70.92;102194.72;6082633;19;20019;-77
2023/02/01 10:08:43;;;;;;;15.23;4.20;;;;;;;7.11;70.99;102198.19;6104042;19;20530;-78
2023/02/01 10:10:52;;;;;;;17.25;4.13;;;;;;;7.12;71.05;102186.88;6100207;19;20027;-77
2023/02/01 10:13:19;;;;;;;12.25;4.07;;;;;;;7.14;71.09;102196.47;6101284;19;20007;-80
2023/02/01 10:15:52;;;;;;;12.43;3.75;;;;;;;7.15;71.60;102205.16;6101042;19;20015;-82
2023/02/01 10:18:12;;;;;;;;;;;;;;;7.09;71.54;102197.38;6104342;19;20131;-82
2023/02/01 10:20:29;;;;;;;17.30;4.75;;;;;;;7.07;71.70;102199.97;6104695;19;19936;-81
2023/02/01 10:22:45;;;;;;;14.38;4.53;;;;;;;7.10;71.22;102210.41;6101643;19;20010;-82
2023/02/01 10:25:23;;;;;;;14.45;4.13;;;;;;;7.16;71.29;102204.28;6099309;19;20010;-82
2023/02/01 10:27:34;;;;;;;11.90;3.03;;;;;;;7.18;71.50;102220.84;6105204;19;20006;-79